Time;durP1;ratioP1;P1;durP2;ratioP2;P2;SDS_P1;SDS_P2;PMS_P1;PMS_P2;Temp;Humidity;BMP_temperature;BMP_pressure;BME280_temperature;BME280_humidity;BME280_pressure;Samples;Min_cycle;Max_cycle;Signal;HPM_P1;HPM_P2
2023/12/15 00:01:34;;;;;;;1.20;0.60;;;;;;;;;;5014884;28;20047;-57
2023/12/15 00:04:00;;;;;;;1.33;0.80;;;;;;;;;;5036407;28;20040;-57
2023/12/15 00:06:25;;;;;;;1.55;0.70;;;;;;;;;;5039339;28;20041;-56
2023/12/15 00:08:50;;;;;;;2.15;0.82;;;;;;;;;;5039508;28;20037;-56
2023/12/15 00:11:16;;;;;;;0.93;0.43;;;;;;;;;;5041434;28;20465;-57
2023/12/15 00:13:41;;;;;;;1.02;0.60;;;;;;;;;;5040213;28;20044;-57
2023/12/15 00:16:06;;;;;;;2.03;0.60;;;;;;;;;;5042293;28;20037;-57
2023/12/15 00:18:32;;;;;;;1.33;0.70;;;;;;;;;;5024367;28;20079;-56
2023/12/15 00:20:57;;;;;;;1.10;0.60;;;;;;;;;;5043355;28;20052;-56
2023/12/15 00:23:23;;;;;;;1.00;0.50;;;;;;;;;;5030056;28;20029;-57
2023/12/15 00:25:48;;;;;;;1.30;0.57;;;;;;;;;;5011292;28;20061;-57
2023/12/15 00:28:14;;;;;;;1.75;0.70;;;;;;;;;;5030258;28;20045;-57
2023/12/15 00:30:39;;;;;;;1.55;0.70;;;;;;;;;;5053727;28;20082;-57
2023/12/15 00:33:04;;;;;;;1.08;0.60;;;;;;;;;;5044345;28;20045;-56
2023/12/15 00:35:29;;;;;;;1.98;0.60;;;;;;;;;;5039961;28;20072;-57
2023/12/15 00:37:55;;;;;;;1.20;0.60;;;;;;;;;;5042404;28;20101;-56
2023/12/15 00:40:22;;;;;;;1.23;0.50;;;;;;;;;;5016571;28;20095;-56
2023/12/15 00:42:47;;;;;;;1.30;0.60;;;;;;;;;;5047312;28;20081;-56
2023/12/15 00:45:13;;;;;;;1.85;0.68;;;;;;;;;;5045633;28;20029;-57
2023/12/15 00:47:38;;;;;;;0.82;0.38;;;;;;;;;;5046865;28;20044;-57
2023/12/15 00:50:05;;;;;;;1.35;0.50;;;;;;;;;;5044158;28;20158;-57
2023/12/15 00:52:30;;;;;;;1.48;0.60;;;;;;;;;;5043822;28;20053;-57
2023/12/15 00:54:55;;;;;;;0.95;0.47;;;;;;;;;;5043907;28;20036;-58
2023/12/15 00:57:21;;;;;;;1.42;0.60;;;;;;;;;;5035709;28;20136;-58
2023/12/15 00:59:46;;;;;;;0.95;0.40;;;;;;;;;;5016029;28;20096;-57
2023/12/15 01:02:11;;;;;;;0.80;0.50;;;;;;;;;;5044358;28;20045;-58
2023/12/15 01:04:36;;;;;;;0.85;0.43;;;;;;;;;;5047498;28;20029;-57
2023/12/15 01:07:02;;;;;;;1.00;0.60;;;;;;;;;;5041234;28;20038;-57
2023/12/15 01:09:27;;;;;;;1.73;0.50;;;;;;;;;;5047180;28;20041;-58
2023/12/15 01:11:53;;;;;;;1.30;0.50;;;;;;;;;;5027882;28;20043;-57
2023/12/15 01:14:18;;;;;;;1.33;0.43;;;;;;;;;;5045174;28;20072;-58
2023/12/15 01:16:44;;;;;;;0.80;0.40;;;;;;;;;;5025083;28;20025;-58
2023/12/15 01:19:10;;;;;;;0.93;0.40;;;;;;;;;;5034962;28;20084;-58
2023/12/15 01:21:35;;;;;;;0.80;0.40;;;;;;;;;;5039420;28;20025;-57
2023/12/15 01:24:00;;;;;;;1.17;0.40;;;;;;;;;;5041758;28;20037;-57
2023/12/15 01:26:26;;;;;;;1.27;0.65;;;;;;;;;;5031419;28;20025;-57
2023/12/15 01:28:51;;;;;;;1.10;0.50;;;;;;;;;;5041220;28;20041;-59
2023/12/15 01:31:16;;;;;;;1.02;0.40;;;;;;;;;;5037648;28;20030;-58
2023/12/15 01:33:42;;;;;;;0.82;0.40;;;;;;;;;;5041264;28;20126;-58
2023/12/15 01:36:07;;;;;;;0.85;0.40;;;;;;;;;;5035973;28;20033;-58
2023/12/15 01:38:32;;;;;;;0.85;0.40;;;;;;;;;;5049257;28;20112;-58
2023/12/15 01:40:58;;;;;;;0.55;0.30;;;;;;;;;;5035083;28;20048;-58
2023/12/15 01:43:23;;;;;;;1.13;0.40;;;;;;;;;;5036040;28;20032;-58
2023/12/15 01:45:48;;;;;;;0.70;0.35;;;;;;;;;;5046269;28;20037;-58
2023/12/15 01:48:14;;;;;;;0.88;0.47;;;;;;;;;;5058444;28;20434;-58
2023/12/15 01:50:39;;;;;;;0.90;0.40;;;;;;;;;;5040157;28;20040;-58
2023/12/15 01:53:05;;;;;;;1.00;0.50;;;;;;;;;;5030339;28;20048;-58
2023/12/15 01:55:30;;;;;;;0.75;0.47;;;;;;;;;;5025761;28;20119;-58
2023/12/15 01:57:55;;;;;;;1.48;0.47;;;;;;;;;;5057874;28;20525;-58
2023/12/15 02:00:20;;;;;;;0.98;0.50;;;;;;;;;;5026930;28;20044;-58
2023/12/15 02:02:46;;;;;;;0.70;0.32;;;;;;;;;;5038910;28;20113;-58
2023/12/15 02:05:11;;;;;;;0.82;0.50;;;;;;;;;;5044109;28;20033;-58
2023/12/15 02:07:36;;;;;;;0.93;0.40;;;;;;;;;;5045038;28;20033;-58
2023/12/15 02:10:03;;;;;;;0.90;0.50;;;;;;;;;;5044092;28;20517;-58
2023/12/15 02:12:28;;;;;;;0.75;0.30;;;;;;;;;;5042769;28;20057;-58
2023/12/15 02:14:54;;;;;;;1.10;0.40;;;;;;;;;;5042519;28;20029;-58
2023/12/15 02:17:19;;;;;;;0.63;0.40;;;;;;;;;;5047194;28;20068;-58
2023/12/15 02:19:44;;;;;;;0.93;0.40;;;;;;;;;;5050934;28;20478;-57
2023/12/15 02:22:10;;;;;;;0.68;0.40;;;;;;;;;;5045073;28;20057;-58
2023/12/15 02:24:35;;;;;;;1.08;0.50;;;;;;;;;;5059058;28;20096;-58
2023/12/15 02:27:00;;;;;;;0.60;0.40;;;;;;;;;;5038378;28;20451;-58
2023/12/15 02:29:27;;;;;;;0.63;0.30;;;;;;;;;;5050842;28;20086;-58
2023/12/15 02:31:53;;;;;;;0.70;0.30;;;;;;;;;;5039818;28;20043;-58
2023/12/15 02:34:18;;;;;;;0.68;0.32;;;;;;;;;;5055763;28;20048;-58
2023/12/15 02:36:43;;;;;;;1.05;0.52;;;;;;;;;;5060912;28;20037;-58
2023/12/15 02:39:09;;;;;;;0.82;0.40;;;;;;;;;;5046185;28;20044;-58
2023/12/15 02:41:34;;;;;;;0.80;0.40;;;;;;;;;;5044798;28;20045;-58
2023/12/15 02:43:59;;;;;;;0.70;0.30;;;;;;;;;;5042590;28;20033;-58
2023/12/15 02:46:25;;;;;;;0.45;0.30;;;;;;;;;;5024871;28;20045;-58
2023/12/15 02:48:50;;;;;;;0.60;0.30;;;;;;;;;;5027834;28;20045;-57
2023/12/15 02:51:26;;;;;;;1.05;0.38;;;;;;;;;;5063800;28;20115;-58
2023/12/15 02:53:51;;;;;;;1.05;0.35;;;;;;;;;;5039771;28;20383;-58
2023/12/15 02:56:16;;;;;;;0.77;0.43;;;;;;;;;;5040631;28;20131;-58
2023/12/15 02:58:42;;;;;;;0.57;0.30;;;;;;;;;;5039604;28;20029;-58
2023/12/15 03:01:07;;;;;;;1.42;0.40;;;;;;;;;;5048027;28;20058;-58
2023/12/15 03:03:33;;;;;;;1.02;0.40;;;;;;;;;;5042769;28;20051;-58
2023/12/15 03:05:58;;;;;;;0.80;0.30;;;;;;;;;;5059202;28;20055;-58
2023/12/15 03:08:27;;;;;;;0.77;0.40;;;;;;;;;;5057599;28;20040;-58
2023/12/15 03:10:55;;;;;;;0.73;0.38;;;;;;;;;;5024985;28;20137;-58
2023/12/15 03:13:20;;;;;;;0.77;0.40;;;;;;;;;;5048067;28;20069;-58
2023/12/15 03:15:45;;;;;;;0.93;0.45;;;;;;;;;;5051656;28;20525;-58
2023/12/15 03:18:11;;;;;;;0.68;0.50;;;;;;;;;;5036929;28;20029;-58
2023/12/15 03:20:36;;;;;;;0.80;0.30;;;;;;;;;;5060766;28;20108;-57
2023/12/15 03:23:01;;;;;;;0.57;0.30;;;;;;;;;;5035464;28;20043;-58
2023/12/15 03:25:27;;;;;;;0.70;0.40;;;;;;;;;;5053854;28;20130;-58
2023/12/15 03:27:52;;;;;;;0.98;0.30;;;;;;;;;;5049122;28;20102;-58
2023/12/15 03:30:17;;;;;;;0.75;0.30;;;;;;;;;;5043749;28;20051;-58
2023/12/15 03:32:43;;;;;;;0.52;0.30;;;;;;;;;;5044809;28;20064;-58
2023/12/15 03:35:08;;;;;;;0.73;0.40;;;;;;;;;;5037061;28;20032;-58
2023/12/15 03:37:33;;;;;;;1.05;0.30;;;;;;;;;;5051926;28;20496;-57
2023/12/15 03:39:59;;;;;;;0.65;0.30;;;;;;;;;;5048781;28;20041;-57
2023/12/15 03:42:24;;;;;;;0.50;0.20;;;;;;;;;;5045514;28;20127;-58
2023/12/15 03:44:49;;;;;;;0.95;0.40;;;;;;;;;;5052267;28;20035;-58
2023/12/15 03:47:14;;;;;;;0.80;0.40;;;;;;;;;;5036110;28;20493;-58
2023/12/15 03:49:40;;;;;;;1.00;0.38;;;;;;;;;;5033779;28;20470;-58
2023/12/15 03:52:05;;;;;;;1.15;0.30;;;;;;;;;;5044315;28;20109;-58
2023/12/15 03:54:30;;;;;;;0.63;0.40;;;;;;;;;;5027145;28;20055;-58
2023/12/15 03:56:56;;;;;;;0.60;0.30;;;;;;;;;;5036323;28;20120;-59
2023/12/15 03:59:22;;;;;;;0.60;0.30;;;;;;;;;;5037260;28;20029;-58
2023/12/15 04:01:47;;;;;;;0.60;0.30;;;;;;;;;;5014114;28;20093;-58
2023/12/15 04:04:13;;;;;;;0.60;0.30;;;;;;;;;;5027663;28;20033;-58
2023/12/15 04:06:38;;;;;;;0.60;0.20;;;;;;;;;;5051273;28;20045;-57
2023/12/15 04:09:03;;;;;;;0.82;0.30;;;;;;;;;;5049926;28;20711;-58
2023/12/15 04:11:28;;;;;;;0.60;0.25;;;;;;;;;;5045342;28;20041;-58
2023/12/15 04:13:54;;;;;;;0.90;0.45;;;;;;;;;;5042253;28;20041;-57
2023/12/15 04:16:19;;;;;;;0.60;0.30;;;;;;;;;;5043280;28;20067;-56
2023/12/15 04:18:44;;;;;;;0.50;0.20;;;;;;;;;;5051204;28;20109;-56
2023/12/15 04:21:10;;;;;;;0.40;0.20;;;;;;;;;;5027117;28;20086;-62
2023/12/15 04:23:35;;;;;;;0.30;0.20;;;;;;;;;;5056087;28;20163;-56
2023/12/15 04:26:00;;;;;;;0.50;0.15;;;;;;;;;;5053244;28;20526;-56
2023/12/15 04:28:26;;;;;;;0.38;0.30;;;;;;;;;;5052346;28;20041;-57
2023/12/15 04:31:15;;;;;;;0.52;0.30;;;;;;;;;;5040039;28;20128;-57
2023/12/15 04:33:40;;;;;;;0.50;0.30;;;;;;;;;;5026195;28;20045;-57
2023/12/15 04:36:07;;;;;;;0.68;0.30;;;;;;;;;;5038029;28;20056;-57
2023/12/15 04:38:33;;;;;;;0.70;0.40;;;;;;;;;;5036498;28;20033;-57
2023/12/15 04:40:58;;;;;;;0.43;0.28;;;;;;;;;;5056107;28;20055;-58
2023/12/15 04:43:23;;;;;;;0.70;0.40;;;;;;;;;;5043051;28;20053;-57
2023/12/15 04:45:49;;;;;;;0.57;0.38;;;;;;;;;;5040675;28;20297;-57
2023/12/15 04:48:14;;;;;;;0.57;0.30;;;;;;;;;;5045991;28;20029;-57
2023/12/15 04:50:39;;;;;;;0.77;0.50;;;;;;;;;;5038352;28;20834;-57
2023/12/15 04:53:05;;;;;;;0.85;0.38;;;;;;;;;;5043317;28;20307;-57
2023/12/15 04:55:30;;;;;;;0.52;0.30;;;;;;;;;;5041868;28;20090;-57
2023/12/15 04:57:56;;;;;;;0.82;0.40;;;;;;;;;;5052174;28;20135;-57
2023/12/15 05:00:21;;;;;;;0.65;0.28;;;;;;;;;;5025546;28;20455;-57
2023/12/15 05:02:47;;;;;;;0.60;0.40;;;;;;;;;;5043902;28;20063;-57
2023/12/15 05:05:12;;;;;;;0.47;0.30;;;;;;;;;;5050117;28;20287;-57
2023/12/15 05:07:38;;;;;;;1.00;0.38;;;;;;;;;;5041143;28;20878;-57
2023/12/15 05:10:03;;;;;;;4.10;0.52;;;;;;;;;;5045575;28;20029;-57
2023/12/15 05:12:28;;;;;;;0.80;0.30;;;;;;;;;;5051985;28;20116;-57
2023/12/15 05:14:54;;;;;;;0.60;0.30;;;;;;;;;;5045698;28;20433;-57
2023/12/15 05:17:19;;;;;;;0.55;0.32;;;;;;;;;;5050683;28;20318;-57
2023/12/15 05:19:44;;;;;;;0.65;0.40;;;;;;;;;;5038205;28;20498;-57
2023/12/15 05:22:09;;;;;;;0.80;0.40;;;;;;;;;;5045913;28;20105;-57
2023/12/15 05:24:35;;;;;;;1.80;0.40;;;;;;;;;;5003721;28;20487;-58
2023/12/15 05:27:00;;;;;;;0.40;0.30;;;;;;;;;;5032314;28;20382;-58
2023/12/15 05:29:25;;;;;;;0.63;0.30;;;;;;;;;;5032817;28;20110;-58
2023/12/15 05:31:51;;;;;;;0.75;0.40;;;;;;;;;;5032914;28;20478;-58
2023/12/15 05:34:16;;;;;;;0.70;0.30;;;;;;;;;;5033070;28;20045;-58
2023/12/15 05:36:41;;;;;;;0.70;0.40;;;;;;;;;;5030903;28;20450;-58
2023/12/15 05:39:07;;;;;;;0.65;0.40;;;;;;;;;;5037358;28;20385;-57
2023/12/15 05:41:32;;;;;;;0.50;0.30;;;;;;;;;;5027664;28;20090;-58
2023/12/15 05:43:57;;;;;;;0.90;0.40;;;;;;;;;;5032315;28;20158;-57
2023/12/15 05:46:23;;;;;;;0.70;0.40;;;;;;;;;;5033716;28;20380;-58
2023/12/15 05:48:48;;;;;;;1.98;0.35;;;;;;;;;;5035833;28;20503;-59
2023/12/15 05:51:13;;;;;;;1.00;0.50;;;;;;;;;;5034924;28;20124;-58
2023/12/15 05:53:38;;;;;;;0.55;0.35;;;;;;;;;;5033448;28;20156;-57
2023/12/15 05:56:04;;;;;;;0.90;0.47;;;;;;;;;;5034500;28;20846;-57
2023/12/15 05:58:29;;;;;;;0.90;0.30;;;;;;;;;;5013307;28;20323;-69
2023/12/15 06:00:55;;;;;;;0.80;0.47;;;;;;;;;;5037436;28;20051;-57
2023/12/15 06:03:20;;;;;;;0.90;0.40;;;;;;;;;;5033963;28;20512;-58
2023/12/15 06:05:46;;;;;;;0.90;0.40;;;;;;;;;;5036179;28;20170;-57
2023/12/15 06:08:11;;;;;;;0.70;0.40;;;;;;;;;;5037614;28;20582;-58
2023/12/15 06:10:36;;;;;;;1.00;0.70;;;;;;;;;;5020481;28;22041;-58
2023/12/15 06:13:02;;;;;;;0.70;0.30;;;;;;;;;;5011678;28;20087;-58
2023/12/15 06:15:27;;;;;;;1.08;0.60;;;;;;;;;;5034008;28;20025;-65
2023/12/15 06:17:52;;;;;;;1.20;0.50;;;;;;;;;;5017847;28;20144;-58
2023/12/15 06:20:17;;;;;;;0.67;0.40;;;;;;;;;;5032019;28;20636;-58
2023/12/15 06:22:43;;;;;;;0.82;0.50;;;;;;;;;;5036737;28;20296;-57
2023/12/15 06:25:08;;;;;;;0.73;0.30;;;;;;;;;;5036286;28;20045;-58
2023/12/15 06:27:34;;;;;;;1.08;0.50;;;;;;;;;;5034947;28;20069;-58
2023/12/15 06:29:59;;;;;;;0.90;0.50;;;;;;;;;;5029824;28;20033;-57
2023/12/15 06:32:25;;;;;;;0.85;0.38;;;;;;;;;;5021561;28;20041;-58
2023/12/15 06:34:50;;;;;;;0.77;0.47;;;;;;;;;;5034731;28;20102;-58
2023/12/15 06:37:15;;;;;;;0.57;0.50;;;;;;;;;;5012528;28;20021;-59
2023/12/15 06:39:40;;;;;;;1.92;0.75;;;;;;;;;;5034257;28;20136;-59
2023/12/15 06:42:06;;;;;;;1.75;0.68;;;;;;;;;;5034165;28;20535;-58
2023/12/15 06:44:31;;;;;;;1.95;0.50;;;;;;;;;;5036792;28;20024;-57
2023/12/15 06:46:56;;;;;;;0.80;0.40;;;;;;;;;;5034773;28;20020;-57
2023/12/15 06:49:29;;;;;;;1.52;0.50;;;;;;;;;;5039873;28;20403;-63
2023/12/15 06:51:55;;;;;;;3.28;0.73;;;;;;;;;;5032478;28;20029;-59
2023/12/15 06:54:20;;;;;;;0.98;0.50;;;;;;;;;;5035542;28;20039;-56
2023/12/15 06:56:45;;;;;;;1.15;0.60;;;;;;;;;;5036292;28;20054;-57
2023/12/15 06:59:11;;;;;;;2.80;0.80;;;;;;;;;;5015655;28;20150;-57
2023/12/15 07:01:37;;;;;;;2.80;0.70;;;;;;;;;;5029841;28;20986;-57
2023/12/15 07:04:02;;;;;;;1.73;0.60;;;;;;;;;;5032797;28;20040;-57
2023/12/15 07:06:27;;;;;;;1.95;0.57;;;;;;;;;;5031420;28;20358;-57
2023/12/15 07:08:54;;;;;;;5.37;0.90;;;;;;;;;;5030001;28;20034;-57
2023/12/15 07:11:20;;;;;;;3.70;0.60;;;;;;;;;;5037965;28;20287;-57
2023/12/15 07:13:45;;;;;;;1.67;0.75;;;;;;;;;;5024059;28;20041;-57
2023/12/15 07:16:11;;;;;;;0.95;0.60;;;;;;;;;;5028760;28;20048;-57
2023/12/15 07:18:36;;;;;;;2.20;0.70;;;;;;;;;;5041640;28;20451;-58
2023/12/15 07:21:01;;;;;;;2.38;0.70;;;;;;;;;;5026906;28;20406;-58
2023/12/15 07:23:26;;;;;;;2.00;0.70;;;;;;;;;;5034879;28;20017;-57
2023/12/15 07:25:52;;;;;;;2.70;0.77;;;;;;;;;;5040133;28;20486;-57
2023/12/15 07:28:17;;;;;;;2.00;0.83;;;;;;;;;;5036755;28;20121;-57
2023/12/15 07:30:42;;;;;;;1.50;0.77;;;;;;;;;;5022745;28;20279;-57
2023/12/15 07:33:08;;;;;;;2.30;0.73;;;;;;;;;;5028047;28;21229;-58
2023/12/15 07:35:33;;;;;;;2.13;0.70;;;;;;;;;;5021264;28;20291;-57
2023/12/15 07:37:59;;;;;;;1.90;0.70;;;;;;;;;;5040488;28;20205;-56
2023/12/15 07:40:24;;;;;;;2.08;0.70;;;;;;;;;;5035449;28;20284;-57
2023/12/15 07:42:49;;;;;;;1.48;0.60;;;;;;;;;;5032837;28;20040;-57
2023/12/15 07:45:14;;;;;;;2.47;0.80;;;;;;;;;;5012764;28;20132;-58
2023/12/15 07:47:40;;;;;;;1.40;0.70;;;;;;;;;;5012127;28;20326;-57
2023/12/15 07:50:06;;;;;;;2.03;0.70;;;;;;;;;;5035696;28;20163;-56
2023/12/15 07:52:31;;;;;;;1.77;0.73;;;;;;;;;;5035355;28;20119;-57
2023/12/15 07:54:56;;;;;;;2.30;0.88;;;;;;;;;;5037615;28;20347;-56
2023/12/15 07:57:22;;;;;;;1.40;0.70;;;;;;;;;;5014577;28;20037;-56
2023/12/15 07:59:47;;;;;;;1.27;0.80;;;;;;;;;;5035715;28;20048;-57
2023/12/15 08:02:16;;;;;;;1.77;0.80;;;;;;;;;;5009138;28;20844;-56
2023/12/15 08:04:42;;;;;;;2.28;1.00;;;;;;;;;;5035649;28;20187;-56
2023/12/15 08:07:07;;;;;;;2.07;0.73;;;;;;;;;;5035606;28;20565;-55
2023/12/15 08:09:32;;;;;;;1.35;0.70;;;;;;;;;;5036096;28;20302;-57
2023/12/15 08:11:57;;;;;;;2.23;0.70;;;;;;;;;;5023059;28;20513;-57
2023/12/15 08:14:26;;;;;;;1.33;0.73;;;;;;;;;;5013809;28;20307;-57
2023/12/15 08:16:52;;;;;;;1.43;0.83;;;;;;;;;;5029021;28;20083;-56
2023/12/15 08:19:17;;;;;;;1.35;0.70;;;;;;;;;;5010147;28;20038;-57
2023/12/15 08:21:42;;;;;;;1.70;0.90;;;;;;;;;;5033965;28;20098;-56
2023/12/15 08:24:08;;;;;;;1.60;1.10;;;;;;;;;;5031721;28;20302;-57
2023/12/15 08:26:33;;;;;;;1.50;1.00;;;;;;;;;;5035651;28;20327;-59
2023/12/15 08:28:58;;;;;;;1.75;1.00;;;;;;;;;;5040619;28;20406;-59
2023/12/15 08:31:24;;;;;;;2.40;1.00;;;;;;;;;;5018381;28;20056;-59
2023/12/15 08:33:49;;;;;;;3.60;1.00;;;;;;;;;;5036839;28;20830;-59
2023/12/15 08:36:14;;;;;;;2.00;0.90;;;;;;;;;;5030546;28;20037;-58
2023/12/15 08:38:40;;;;;;;2.30;1.10;;;;;;;;;;5024283;28;20049;-56
2023/12/15 08:41:06;;;;;;;2.40;1.05;;;;;;;;;;5030083;28;20895;-58
2023/12/15 08:43:32;;;;;;;1.70;1.10;;;;;;;;;;5028944;28;20029;-57
2023/12/15 08:45:57;;;;;;;1.83;1.10;;;;;;;;;;5038096;28;20143;-57
2023/12/15 08:48:22;;;;;;;2.13;0.90;;;;;;;;;;5042007;28;20041;-57
2023/12/15 08:50:48;;;;;;;2.03;0.90;;;;;;;;;;5041097;28;20041;-57
2023/12/15 08:53:15;;;;;;;4.30;1.30;;;;;;;;;;5022072;28;20081;-57
2023/12/15 08:55:40;;;;;;;2.03;0.95;;;;;;;;;;5018095;28;20044;-57
2023/12/15 08:58:05;;;;;;;1.87;1.17;;;;;;;;;;5039497;28;20087;-57
2023/12/15 09:00:30;;;;;;;1.77;1.03;;;;;;;;;;5041127;28;20306;-58
2023/12/15 09:02:57;;;;;;;2.00;1.20;;;;;;;;;;5036652;28;20287;-57
2023/12/15 09:05:23;;;;;;;2.10;1.30;;;;;;;;;;5043500;28;20808;-57
2023/12/15 09:07:49;;;;;;;2.17;1.10;;;;;;;;;;5030706;28;20029;-57
2023/12/15 09:10:14;;;;;;;1.92;1.20;;;;;;;;;;5046291;28;20047;-58
2023/12/15 09:12:40;;;;;;;2.88;1.13;;;;;;;;;;5035672;28;20051;-57
2023/12/15 09:15:05;;;;;;;1.90;1.35;;;;;;;;;;5044617;28;20029;-58
2023/12/15 09:17:30;;;;;;;1.50;1.10;;;;;;;;;;5017592;28;20108;-58
2023/12/15 09:19:56;;;;;;;1.52;0.90;;;;;;;;;;5037458;28;20438;-57
2023/12/15 09:22:21;;;;;;;2.00;1.20;;;;;;;;;;5036607;28;20148;-58
2023/12/15 09:24:46;;;;;;;2.10;1.20;;;;;;;;;;5032944;28;20043;-58
2023/12/15 09:27:12;;;;;;;2.20;1.30;;;;;;;;;;5035366;28;20160;-57
2023/12/15 09:29:37;;;;;;;2.28;1.10;;;;;;;;;;5040078;28;20037;-57
2023/12/15 09:32:02;;;;;;;1.80;0.90;;;;;;;;;;5038668;28;20061;-57
2023/12/15 09:34:27;;;;;;;2.28;1.30;;;;;;;;;;5027303;28;20381;-58
2023/12/15 09:36:53;;;;;;;2.13;1.30;;;;;;;;;;5043400;28;20087;-55
2023/12/15 09:39:18;;;;;;;5.47;2.20;;;;;;;;;;5022911;28;20503;-56
2023/12/15 09:41:43;;;;;;;4.43;1.73;;;;;;;;;;5036089;28;20299;-56
2023/12/15 09:44:09;;;;;;;3.10;1.70;;;;;;;;;;5031218;28;20119;-56
2023/12/15 09:46:34;;;;;;;4.45;1.70;;;;;;;;;;5035111;28;20627;-57
2023/12/15 09:48:59;;;;;;;4.20;1.58;;;;;;;;;;5036126;28;20041;-57
2023/12/15 09:51:28;;;;;;;3.67;1.70;;;;;;;;;;5038743;28;20080;-56
2023/12/15 09:53:53;;;;;;;2.17;1.50;;;;;;;;;;5033042;28;20362;-56
2023/12/15 09:56:18;;;;;;;3.65;1.60;;;;;;;;;;5033719;28;21022;-55
2023/12/15 09:58:44;;;;;;;2.58;1.13;;;;;;;;;;5038679;28;20044;-56
2023/12/15 10:01:12;;;;;;;3.70;1.70;;;;;;;;;;5036075;28;20111;-57
2023/12/15 10:03:38;;;;;;;3.80;1.45;;;;;;;;;;5035711;28;20070;-57
2023/12/15 10:06:03;;;;;;;4.88;1.30;;;;;;;;;;5035494;28;20045;-57
2023/12/15 10:08:41;;;;;;;2.97;1.40;;;;;;;;;;5037095;28;20051;-57
2023/12/15 10:11:07;;;;;;;2.53;1.35;;;;;;;;;;5037748;28;20039;-59
2023/12/15 10:13:32;;;;;;;3.65;1.70;;;;;;;;;;5034571;28;20049;-56
2023/12/15 10:15:58;;;;;;;4.07;1.50;;;;;;;;;;5014714;28;20037;-59
2023/12/15 10:18:23;;;;;;;3.33;1.40;;;;;;;;;;5037591;28;20033;-57
2023/12/15 10:20:48;;;;;;;3.75;1.58;;;;;;;;;;5037819;28;20128;-57
2023/12/15 10:23:14;;;;;;;3.40;1.40;;;;;;;;;;5033659;28;20798;-58
2023/12/15 10:25:43;;;;;;;2.90;1.48;;;;;;;;;;5034794;28;20437;-58
2023/12/15 10:28:08;;;;;;;3.08;1.67;;;;;;;;;;5041551;28;20056;-58
2023/12/15 10:30:33;;;;;;;2.87;1.40;;;;;;;;;;5017520;28;20502;-58
2023/12/15 10:32:58;;;;;;;4.53;1.70;;;;;;;;;;5029384;28;20333;-58
2023/12/15 10:35:24;;;;;;;2.95;1.50;;;;;;;;;;5035991;28;20029;-58
2023/12/15 10:37:49;;;;;;;3.35;1.50;;;;;;;;;;5039084;28;20468;-58
2023/12/15 10:40:14;;;;;;;2.80;1.70;;;;;;;;;;5019142;28;20040;-58
2023/12/15 10:42:40;;;;;;;3.15;1.60;;;;;;;;;;5038385;28;21095;-58
2023/12/15 10:45:05;;;;;;;3.75;1.80;;;;;;;;;;5035234;28;20464;-58
2023/12/15 10:47:31;;;;;;;2.85;1.48;;;;;;;;;;5040790;28;20040;-59
2023/12/15 10:49:56;;;;;;;2.70;1.50;;;;;;;;;;5013828;28;20111;-58
2023/12/15 10:52:22;;;;;;;2.92;1.45;;;;;;;;;;5017719;28;20025;-57
2023/12/15 10:54:56;;;;;;;2.50;1.50;;;;;;;;;;5012994;28;20049;-58
2023/12/15 10:57:21;;;;;;;2.83;1.50;;;;;;;;;;5010225;28;21076;-58
2023/12/15 10:59:48;;;;;;;3.17;1.80;;;;;;;;;;5036884;28;20032;-59
2023/12/15 11:02:14;;;;;;;2.97;1.85;;;;;;;;;;5036300;28;20348;-59
2023/12/15 11:04:39;;;;;;;3.50;1.73;;;;;;;;;;5035677;28;20044;-58
2023/12/15 11:07:04;;;;;;;3.13;1.73;;;;;;;;;;5038203;28;20098;-59
2023/12/15 11:09:33;;;;;;;2.00;1.50;;;;;;;;;;5038306;28;20064;-58
2023/12/15 11:12:17;;;;;;;2.85;1.50;;;;;;;;;;5035690;28;20037;-58
2023/12/15 11:14:42;;;;;;;1.98;1.23;;;;;;;;;;5029449;28;20479;-57
2023/12/15 11:17:09;;;;;;;2.63;1.70;;;;;;;;;;5037726;28;20146;-58
2023/12/15 11:19:36;;;;;;;2.35;1.40;;;;;;;;;;5042582;28;20287;-58
2023/12/15 11:22:04;;;;;;;2.90;1.83;;;;;;;;;;5044536;28;20530;-57
2023/12/15 11:24:30;;;;;;;3.25;1.73;;;;;;;;;;5036331;28;20067;-58
2023/12/15 11:26:55;;;;;;;2.73;1.47;;;;;;;;;;5039386;28;20033;-58
2023/12/15 11:29:20;;;;;;;2.43;1.80;;;;;;;;;;5041214;28;20382;-58
2023/12/15 11:31:45;;;;;;;2.80;1.80;;;;;;;;;;5032564;28;20757;-58
2023/12/15 11:34:31;;;;;;;2.90;1.80;;;;;;;;;;5041698;28;20599;-58
2023/12/15 11:36:56;;;;;;;2.60;1.63;;;;;;;;;;5042608;28;20283;-58
2023/12/15 11:39:21;;;;;;;3.25;1.55;;;;;;;;;;5040772;28;20017;-58
2023/12/15 11:41:47;;;;;;;2.27;1.40;;;;;;;;;;5039759;28;20441;-58
2023/12/15 11:44:13;;;;;;;2.55;1.60;;;;;;;;;;5025490;28;20283;-58
2023/12/15 11:46:39;;;;;;;3.72;1.83;;;;;;;;;;5016858;28;20029;-58
2023/12/15 11:49:04;;;;;;;3.47;1.30;;;;;;;;;;5031236;28;20025;-57
2023/12/15 11:51:30;;;;;;;2.28;1.48;;;;;;;;;;5035761;28;20410;-56
2023/12/15 11:53:58;;;;;;;2.10;1.50;;;;;;;;;;5041630;28;20032;-56
2023/12/15 11:56:24;;;;;;;2.70;1.70;;;;;;;;;;5022003;28;20029;-59
2023/12/15 11:58:49;;;;;;;2.37;1.80;;;;;;;;;;5043029;28;20090;-55
2023/12/15 12:01:15;;;;;;;2.33;1.63;;;;;;;;;;5042018;28;20311;-56
2023/12/15 12:03:40;;;;;;;3.08;2.00;;;;;;;;;;5038409;28;20316;-57
2023/12/15 12:06:08;;;;;;;2.63;1.60;;;;;;;;;;5041819;28;20057;-56
2023/12/15 12:08:34;;;;;;;2.35;1.52;;;;;;;;;;5044989;28;20059;-57
2023/12/15 12:10:59;;;;;;;3.03;1.70;;;;;;;;;;5040981;28;20013;-56
2023/12/15 12:13:31;;;;;;;3.45;1.90;;;;;;;;;;5038908;28;20041;-56
2023/12/15 12:15:57;;;;;;;3.55;1.63;;;;;;;;;;5001684;28;20124;-56
2023/12/15 12:18:23;;;;;;;2.30;1.70;;;;;;;;;;5043946;28;20128;-56
2023/12/15 12:20:51;;;;;;;3.65;1.98;;;;;;;;;;5047215;28;20037;-57
2023/12/15 12:23:16;;;;;;;2.55;1.65;;;;;;;;;;5041783;28;20079;-56
2023/12/15 12:25:44;;;;;;;2.47;1.60;;;;;;;;;;5044471;28;20038;-56
2023/12/15 12:28:09;;;;;;;2.83;1.77;;;;;;;;;;5017686;28;20044;-56
2023/12/15 12:30:35;;;;;;;2.58;1.88;;;;;;;;;;5031219;28;20033;-56
2023/12/15 12:33:00;;;;;;;3.20;1.87;;;;;;;;;;5034975;28;20081;-56
2023/12/15 12:35:25;;;;;;;3.17;1.75;;;;;;;;;;5039376;28;20851;-56
2023/12/15 12:37:50;;;;;;;2.43;1.67;;;;;;;;;;5038279;28;20037;-56
2023/12/15 12:40:16;;;;;;;2.03;1.50;;;;;;;;;;5038081;28;21016;-56
2023/12/15 12:42:41;;;;;;;2.85;1.60;;;;;;;;;;5037936;28;20041;-55
2023/12/15 12:45:07;;;;;;;2.90;1.80;;;;;;;;;;5019602;28;20036;-56
2023/12/15 12:47:37;;;;;;;2.80;1.85;;;;;;;;;;5018932;28;20276;-56
2023/12/15 12:50:04;;;;;;;3.13;1.90;;;;;;;;;;5001945;28;20033;-56
2023/12/15 12:52:29;;;;;;;2.28;1.90;;;;;;;;;;5042815;28;20037;-56
2023/12/15 12:54:54;;;;;;;2.42;1.85;;;;;;;;;;5034650;28;20049;-56
2023/12/15 12:57:20;;;;;;;3.10;2.07;;;;;;;;;;5041215;28;20032;-56
2023/12/15 12:59:45;;;;;;;3.13;1.50;;;;;;;;;;5044746;28;20329;-56
2023/12/15 13:02:10;;;;;;;3.33;2.05;;;;;;;;;;5033552;28;20134;-57
2023/12/15 13:04:36;;;;;;;3.78;1.92;;;;;;;;;;5043329;28;20064;-56
2023/12/15 13:07:01;;;;;;;2.90;1.73;;;;;;;;;;5041185;28;20044;-56
2023/12/15 13:09:26;;;;;;;4.27;2.13;;;;;;;;;;5042706;28;20036;-56
2023/12/15 13:11:51;;;;;;;2.90;1.98;;;;;;;;;;5039051;28;20311;-56
2023/12/15 13:14:18;;;;;;;4.47;1.90;;;;;;;;;;5018929;28;20551;-56
2023/12/15 13:16:44;;;;;;;3.05;1.70;;;;;;;;;;5050417;28;20784;-56
2023/12/15 13:19:09;;;;;;;3.40;2.00;;;;;;;;;;5040723;28;20086;-56
2023/12/15 13:21:35;;;;;;;2.58;1.70;;;;;;;;;;5040450;28;20119;-57
2023/12/15 13:24:00;;;;;;;3.38;1.73;;;;;;;;;;5021112;28;20174;-56
2023/12/15 13:26:25;;;;;;;3.07;1.80;;;;;;;;;;5039962;28;20052;-56
2023/12/15 13:28:51;;;;;;;3.92;1.90;;;;;;;;;;5037499;28;20790;-55
2023/12/15 13:31:16;;;;;;;3.58;1.95;;;;;;;;;;5040693;28;20029;-56
2023/12/15 13:33:46;;;;;;;3.75;1.92;;;;;;;;;;5020774;28;20580;-56
2023/12/15 13:36:14;;;;;;;3.15;1.92;;;;;;;;;;5019479;28;20037;-56
2023/12/15 13:38:40;;;;;;;3.72;2.00;;;;;;;;;;5037596;28;20632;-57
2023/12/15 13:41:05;;;;;;;4.85;2.17;;;;;;;;;;5039975;28;20087;-56
2023/12/15 13:43:31;;;;;;;4.23;2.20;;;;;;;;;;5044156;28;20052;-57
2023/12/15 13:45:56;;;;;;;3.83;2.13;;;;;;;;;;5040029;28;20783;-56
2023/12/15 13:48:21;;;;;;;2.53;1.60;;;;;;;;;;5022208;28;20033;-57
2023/12/15 13:50:47;;;;;;;3.95;1.98;;;;;;;;;;5045105;28;20575;-56
2023/12/15 13:53:12;;;;;;;2.70;1.90;;;;;;;;;;5040596;28;20153;-56
2023/12/15 13:55:38;;;;;;;3.35;2.00;;;;;;;;;;5042311;28;20045;-57
2023/12/15 13:58:03;;;;;;;2.97;1.92;;;;;;;;;;5019280;28;20044;-56
2023/12/15 14:00:28;;;;;;;2.60;1.90;;;;;;;;;;5040472;28;20481;-57
2023/12/15 14:02:54;;;;;;;2.70;1.88;;;;;;;;;;5023040;28;20306;-56
2023/12/15 14:05:19;;;;;;;4.03;1.80;;;;;;;;;;5044749;28;20056;-57
2023/12/15 14:07:44;;;;;;;4.13;1.50;;;;;;;;;;5034974;28;20037;-57
2023/12/15 14:10:09;;;;;;;8.02;1.90;;;;;;;;;;5043346;28;20088;-57
2023/12/15 14:12:35;;;;;;;5.22;2.03;;;;;;;;;;5013628;28;20040;-55
2023/12/15 14:15:00;;;;;;;7.30;2.25;;;;;;;;;;5042368;28;20049;-57
2023/12/15 14:17:28;;;;;;;5.30;1.88;;;;;;;;;;5029016;28;20451;-56
2023/12/15 14:19:54;;;;;;;6.68;1.80;;;;;;;;;;5018859;28;20037;-56
2023/12/15 14:22:20;;;;;;;5.97;2.03;;;;;;;;;;5030330;28;20073;-57
2023/12/15 14:24:46;;;;;;;4.47;2.00;;;;;;;;;;5013360;28;20032;-56
2023/12/15 14:27:11;;;;;;;5.50;1.88;;;;;;;;;;5024132;28;20044;-56
2023/12/15 14:29:37;;;;;;;5.35;1.77;;;;;;;;;;5042130;28;20132;-56
2023/12/15 14:32:02;;;;;;;3.80;1.77;;;;;;;;;;5034890;28;20623;-56
2023/12/15 14:34:28;;;;;;;4.75;2.00;;;;;;;;;;5037038;28;20049;-57